デリー の空港の天気 - METARとTAF

インディラ・ガンディー国際空港 ( VIDP / DEL ) - インド デリー
飛行場実況気象(Metar)
観測時間08/26 00:30 IST (08/25 19:00 UTC)
風向・風速北東 2m/s
視程2500m
天気現象もや
全天の4割程度の雲 雲底高度 910m
全天の8割程度の雲 雲底高度 3050m
気温26℃
湿度89%
気圧1005hPa
METARVIDP 251900Z 04004KT 2500 BR SCT030 BKN100 26/24 Q1005 NOSIG
過去の天気等 Google飛行場航空写真 Wunderground天気予報

過去48時間のMETAR

飛行場予報(TAF)
発表時間: 8/25 22:30 IST (8/25 17:00 UTC)
予報対象時間: 25日23時 IST ~ 26日8時 IST
風向・風速東北東 3m/s
視程2500m
天気現象もや 弱い雨
全天の4割程度の雲 雲底高度 910m
全天の8割程度の雲 雲底高度 3050m
26日3時 IST ~ 26日8時 IST に徐々に
風向・風速東南東 4m/s
視程1500m
天気現象雷雨
少しの積乱雲 雲底高度 1070m
全天を覆う雲 雲底高度 2440m
TAF VIDP 251700Z 2518/2603 07005KT 2500 BR -RA SCT030 BKN100
BECMG 2522/2603 11008KT 1500 TSRA FEW035CB OVC080